Aérodrome :
LOGIN :

S'inscrire | Disclaimer

   EN    FR    IT 

 










Légende :    VFR   VFR Marginal   IFR   IFR Intensif   IFR Très Intensif
Visi : 
Plafond : 
>= 8 km
>= 3000ft
5 à 8 km
1000 à 3000 ft
1500m à 5 km
500 à 1000 ft
800 à 1500m
200 à 500 ft
< 800m
< 200 ft
Symboles :   Orages  Brouillard  Fortes neiges  Fortes précipitations  Vent > 20 kt
SIGMETs :   Divers  Orages  Givrage  Turbulence  Onde Orograph.  Cendres Volcan.







- Altitude de l'aérodrome : 156 ft
- Code IATA : OMO


LQMO - Mostar

DERNIER METAR :
  • 211900Z 06003KT 040V100 CAVOK 14/03 Q1017

METARs EXPIRÉS :
  • 211800Z 28006KT 9999 FEW040 SCT060 15/03 Q1016
  • 211700Z 20003KT 140V280 9999 FEW040 SCT060 16/02 Q1016

TAF COR TAF LQMO
Valide du 21 à 18h jusqu'au 22 à 18h UTC


211700Z 2118/2218 30007KT 9999 SCT045 TX23/2213Z TN10/2205Z
TEMPO 2118/2218 01012KT
PROB30
TEMPO 2118/2218 03015G25KT
Pas de NOTAMs connus pour ce terrain.



MET'MAP, la Météo Aéronautique d'un coup d'oeil ! - Copyright ORBIFLY Décembre 2007 - Disclaimer

ORBIFLY MET'MAP TEAM :

Programmation & Développement : Alexandra Zaïnal
Conception & Développement : Baudouin d'Aumeries
Co-Programmation & Développement : Marc-Olivier Méhu
Soutien technique & logistique : Manuel Goepfert

Contact : metmap@orbifly.com




SOURCES & CREDITS :

   NOAA